PWSweather.com
Personal Weather Stations
Station Observations
WODONGA
Wodonga, WodongaAU 3690

WodongaWodongaAU 3690

Lat: -36.121, Lon: 146.87

Elevation: 541

Station Type: Weather Station

http://www.wodongaweather.net

Latest ConditionsUpdated 1:45:00 PM GMT+10:10 Thursday, Apr 17, 2014
Currently Today's Max Today's Min Today's Average
Temperature 75.0°F23.9°C 75.2°F24.0°C 46.2°F7.9°C 56.1°F13.4°C
Dew Point 56.2°F13.4°C 57.1°F13.9°C 42.7°F5.9°C 48.5°F9.2°C
Winds 2.7 mph NW4.3 kmh NW 5.6 mph WNW9.0 kmh WNW - 1.9 mph 3.1 kmh
Wind Gusts 8.3 mph13.4 kmh 8.3 mph13.4 kmh - -
Humidity 52% 89% 50% 77%
Pressure 30.11 in1019.6 mb 30.18 in1022.0 mb 30.09 in1019.0 mb -
Hour Temp Dew Point Humidity Winds Wind Gusts Pressure Precip Precip Rate Daily Precip Total
01:45 PM 75.0°F23.9°C 56.2°F13.4°C 52% 2.7 mph NW4.3 kmh NW 8.3 mph13.4 kmh 30.11 in1019.6 mb 0.00 in0.0 mm 0.00 in/hr0.0 mm/hr 0.00 in0.0 mm
01:40 PM 74.7°F23.7°C 56.4°F13.6°C 53% 2.7 mph NW4.3 kmh NW 6.0 mph9.7 kmh 30.11 in1019.6 mb 0.00 in0.0 mm 0.00 in/hr0.0 mm/hr 0.00 in0.0 mm
01:35 PM 74.1°F23.4°C 54.9°F12.7°C 51% 4.7 mph WNW7.6 kmh WNW 6.0 mph9.7 kmh 30.11 in1019.6 mb 0.00 in0.0 mm 0.00 in/hr0.0 mm/hr 0.00 in0.0 mm
01:30 PM 73.8°F23.2°C 54.0°F12.2°C 50% 5.6 mph WNW9.0 kmh WNW 7.6 mph12.2 kmh 30.11 in1019.6 mb 0.00 in0.0 mm 0.00 in/hr0.0 mm/hr 0.00 in0.0 mm
01:25 PM 74.5°F23.6°C 55.2°F12.9°C 51% 5.2 mph NNW8.4 kmh NNW 7.6 mph12.2 kmh 30.11 in1019.6 mb 0.00 in0.0 mm 0.00 in/hr0.0 mm/hr 0.00 in0.0 mm
01:20 PM 74.5°F23.6°C 55.2°F12.9°C 51% 4.6 mph N7.4 kmh N 6.0 mph9.7 kmh 30.11 in1019.6 mb 0.00 in0.0 mm 0.00 in/hr0.0 mm/hr 0.00 in0.0 mm
01:15 PM 74.8°F23.8°C 56.1°F13.4°C 52% 3.8 mph N6.1 kmh N 6.0 mph9.7 kmh 30.12 in1020.0 mb 0.00 in0.0 mm 0.00 in/hr0.0 mm/hr 0.00 in0.0 mm
01:10 PM 75.2°F24.0°C 56.4°F13.6°C 52% 3.5 mph NE5.6 kmh NE 6.0 mph9.7 kmh 30.12 in1020.0 mb 0.00 in0.0 mm 0.00 in/hr0.0 mm/hr 0.00 in0.0 mm
01:05 PM 75.0°F23.9°C 55.7°F13.2°C 51% 4.1 mph ENE6.6 kmh ENE 6.9 mph11.1 kmh 30.12 in1020.0 mb 0.00 in0.0 mm 0.00 in/hr0.0 mm/hr 0.00 in0.0 mm
01:00 PM 74.7°F23.7°C 55.9°F13.3°C 52% 4.8 mph E7.7 kmh E 6.9 mph11.1 kmh 30.12 in1020.0 mb 0.00 in0.0 mm 0.00 in/hr0.0 mm/hr 0.00 in0.0 mm
12:55 PM 75.2°F24.0°C 56.4°F13.6°C 52% 4.3 mph E6.9 kmh E 6.0 mph9.7 kmh 30.12 in1020.0 mb 0.00 in0.0 mm 0.00 in/hr0.0 mm/hr 0.00 in0.0 mm
12:50 PM 74.8°F23.8°C 57.1°F13.9°C 54% 3.2 mph E5.1 kmh E 5.4 mph8.7 kmh 30.12 in1020.0 mb 0.00 in0.0 mm 0.00 in/hr0.0 mm/hr 0.00 in0.0 mm
12:45 PM 74.1°F23.4°C 55.9°F13.3°C 53% 3.0 mph NNE4.8 kmh NNE 4.5 mph7.2 kmh 30.13 in1020.3 mb 0.00 in0.0 mm 0.00 in/hr0.0 mm/hr 0.00 in0.0 mm
12:30 PM 73.6°F23.1°C 56.4°F13.6°C 55% 3.4 mph N5.5 kmh N 5.4 mph8.7 kmh 30.13 in1020.3 mb 0.00 in0.0 mm 0.00 in/hr0.0 mm/hr 0.00 in0.0 mm
12:25 PM 73.0°F22.8°C 55.9°F13.3°C 55% 4.1 mph NNW6.6 kmh NNW 6.9 mph11.1 kmh 30.13 in1020.3 mb 0.00 in0.0 mm 0.00 in/hr0.0 mm/hr 0.00 in0.0 mm
12:20 PM 73.0°F22.8°C 55.9°F13.3°C 55% 4.9 mph N7.9 kmh N 6.9 mph11.1 kmh 30.14 in1020.7 mb 0.00 in0.0 mm 0.00 in/hr0.0 mm/hr 0.00 in0.0 mm
12:15 PM 72.7°F22.6°C 55.1°F12.8°C 54% 4.5 mph NNW7.2 kmh NNW 6.9 mph11.1 kmh 30.14 in1020.7 mb 0.00 in0.0 mm 0.00 in/hr0.0 mm/hr 0.00 in0.0 mm
12:10 PM 72.9°F22.7°C 56.3°F13.5°C 56% 4.0 mph NNW6.4 kmh NNW 6.0 mph9.7 kmh 30.14 in1020.7 mb 0.00 in0.0 mm 0.00 in/hr0.0 mm/hr 0.00 in0.0 mm
12:05 PM 72.5°F22.5°C 55.9°F13.3°C 56% 4.5 mph N7.2 kmh N 6.9 mph11.1 kmh 30.14 in1020.7 mb 0.00 in0.0 mm 0.00 in/hr0.0 mm/hr 0.00 in0.0 mm
12:00 PM 73.0°F22.8°C 55.4°F13.0°C 54% 3.8 mph N6.1 kmh N 6.9 mph11.1 kmh 30.14 in1020.7 mb 0.00 in0.0 mm 0.00 in/hr0.0 mm/hr 0.00 in0.0 mm
11:55 AM 73.6°F23.1°C 56.4°F13.6°C 55% 2.3 mph NNE3.7 kmh NNE 3.8 mph6.1 kmh 30.15 in1021.0 mb 0.00 in0.0 mm 0.00 in/hr0.0 mm/hr 0.00 in0.0 mm
11:50 AM 73.4°F23.0°C 56.8°F13.8°C 56% 2.4 mph S3.9 kmh S 3.1 mph5.0 kmh 30.15 in1021.0 mb 0.00 in0.0 mm 0.00 in/hr0.0 mm/hr 0.00 in0.0 mm
11:45 AM 73.0°F22.8°C 56.9°F13.8°C 57% 2.7 mph S4.3 kmh S 3.1 mph5.0 kmh 30.15 in1021.0 mb 0.00 in0.0 mm 0.00 in/hr0.0 mm/hr 0.00 in0.0 mm
11:40 AM 72.5°F22.5°C 56.9°F13.8°C 58% 2.7 mph S4.3 kmh S 3.1 mph5.0 kmh 30.15 in1021.0 mb 0.00 in0.0 mm 0.00 in/hr0.0 mm/hr 0.00 in0.0 mm
11:35 AM 71.2°F21.8°C 56.2°F13.4°C 59% 2.5 mph SW4.0 kmh SW 3.8 mph6.1 kmh 30.15 in1021.0 mb 0.00 in0.0 mm 0.00 in/hr0.0 mm/hr 0.00 in0.0 mm
11:30 AM 70.2°F21.2°C 54.2°F12.3°C 57% 2.6 mph NW4.2 kmh NW 4.5 mph7.2 kmh 30.16 in1021.3 mb 0.00 in0.0 mm 0.00 in/hr0.0 mm/hr 0.00 in0.0 mm
11:25 AM 70.0°F21.1°C 55.0°F12.8°C 59% 3.0 mph NNW4.8 kmh NNW 4.5 mph7.2 kmh 30.16 in1021.3 mb 0.00 in0.0 mm 0.00 in/hr0.0 mm/hr 0.00 in0.0 mm
11:20 AM 69.8°F21.0°C 55.3°F12.9°C 60% 3.2 mph NW5.1 kmh NW 4.5 mph7.2 kmh 30.16 in1021.3 mb 0.00 in0.0 mm 0.00 in/hr0.0 mm/hr 0.00 in0.0 mm
11:15 AM 69.6°F20.9°C 54.7°F12.6°C 59% 3.0 mph WNW4.8 kmh WNW 4.5 mph7.2 kmh 30.16 in1021.3 mb 0.00 in0.0 mm 0.00 in/hr0.0 mm/hr 0.00 in0.0 mm
11:10 AM 69.3°F20.7°C 54.8°F12.7°C 60% 2.7 mph NNE4.3 kmh NNE 3.1 mph5.0 kmh 30.16 in1021.3 mb 0.00 in0.0 mm 0.00 in/hr0.0 mm/hr 0.00 in0.0 mm
11:05 AM 69.4°F20.8°C 55.9°F13.3°C 62% 3.1 mph E5.0 kmh E 6.0 mph9.7 kmh 30.16 in1021.3 mb 0.00 in0.0 mm 0.00 in/hr0.0 mm/hr 0.00 in0.0 mm
11:00 AM 69.4°F20.8°C 55.9°F13.3°C 62% 3.5 mph E5.6 kmh E 6.0 mph9.7 kmh 30.16 in1021.3 mb 0.00 in0.0 mm 0.00 in/hr0.0 mm/hr 0.00 in0.0 mm
10:55 AM 69.4°F20.8°C 55.4°F13.0°C 61% 2.7 mph NE4.3 kmh NE 4.5 mph7.2 kmh 30.16 in1021.3 mb 0.00 in0.0 mm 0.00 in/hr0.0 mm/hr 0.00 in0.0 mm
10:50 AM 68.7°F20.4°C 55.6°F13.1°C 63% 2.5 mph SE4.0 kmh SE 3.8 mph6.1 kmh 30.16 in1021.3 mb 0.00 in0.0 mm 0.00 in/hr0.0 mm/hr 0.00 in0.0 mm
10:45 AM 68.5°F20.3°C 55.5°F13.1°C 63% 3.3 mph SE5.3 kmh SE 4.5 mph7.2 kmh 30.16 in1021.3 mb 0.00 in0.0 mm 0.00 in/hr0.0 mm/hr 0.00 in0.0 mm
10:40 AM 68.2°F20.1°C 55.6°F13.1°C 64% 3.6 mph ESE5.8 kmh ESE 4.5 mph7.2 kmh 30.17 in1021.7 mb 0.00 in0.0 mm 0.00 in/hr0.0 mm/hr 0.00 in0.0 mm
10:35 AM 67.5°F19.7°C 54.9°F12.7°C 64% 3.4 mph E5.5 kmh E 4.5 mph7.2 kmh 30.16 in1021.3 mb 0.00 in0.0 mm 0.00 in/hr0.0 mm/hr 0.00 in0.0 mm
10:30 AM 67.8°F19.9°C 55.2°F12.9°C 64% 3.1 mph ESE5.0 kmh ESE 4.5 mph7.2 kmh 30.16 in1021.3 mb 0.00 in0.0 mm 0.00 in/hr0.0 mm/hr 0.00 in0.0 mm
10:25 AM 67.6°F19.8°C 55.0°F12.8°C 64% 3.7 mph ESE6.0 kmh ESE 6.0 mph9.7 kmh 30.17 in1021.7 mb 0.00 in0.0 mm 0.00 in/hr0.0 mm/hr 0.00 in0.0 mm
10:20 AM 66.9°F19.4°C 54.8°F12.7°C 65% 4.1 mph SE6.6 kmh SE 6.0 mph9.7 kmh 30.17 in1021.7 mb 0.00 in0.0 mm 0.00 in/hr0.0 mm/hr 0.00 in0.0 mm
10:15 AM 66.6°F19.2°C 55.7°F13.2°C 68% 4.1 mph SE6.6 kmh SE 6.0 mph9.7 kmh 30.16 in1021.3 mb 0.00 in0.0 mm 0.00 in/hr0.0 mm/hr 0.00 in0.0 mm
10:10 AM 65.7°F18.7°C 54.8°F12.7°C 68% 3.8 mph SE6.1 kmh SE 6.0 mph9.7 kmh 30.17 in1021.7 mb 0.00 in0.0 mm 0.00 in/hr0.0 mm/hr 0.00 in0.0 mm
10:05 AM 65.1°F18.4°C 54.7°F12.6°C 69% 3.9 mph ESE6.3 kmh ESE 5.4 mph8.7 kmh 30.17 in1021.7 mb 0.00 in0.0 mm 0.00 in/hr0.0 mm/hr 0.00 in0.0 mm
10:00 AM 64.4°F18.0°C 54.0°F12.2°C 69% 4.5 mph ESE7.2 kmh ESE 6.9 mph11.1 kmh 30.17 in1021.7 mb 0.00 in0.0 mm 0.00 in/hr0.0 mm/hr 0.00 in0.0 mm
09:55 AM 63.5°F17.5°C 53.9°F12.2°C 71% 4.4 mph ESE7.1 kmh ESE 6.9 mph11.1 kmh 30.17 in1021.7 mb 0.00 in0.0 mm 0.00 in/hr0.0 mm/hr 0.00 in0.0 mm
09:50 AM 63.0°F17.2°C 53.4°F11.9°C 71% 4.1 mph E6.6 kmh E 6.0 mph9.7 kmh 30.17 in1021.7 mb 0.00 in0.0 mm 0.00 in/hr0.0 mm/hr 0.00 in0.0 mm
09:45 AM 62.4°F16.9°C 52.9°F11.6°C 71% 3.9 mph E6.3 kmh E 5.4 mph8.7 kmh 30.17 in1021.7 mb 0.00 in0.0 mm 0.00 in/hr0.0 mm/hr 0.00 in0.0 mm
09:40 AM 62.4°F16.9°C 52.9°F11.6°C 71% 3.1 mph E5.0 kmh E 5.4 mph8.7 kmh 30.17 in1021.7 mb 0.00 in0.0 mm 0.00 in/hr0.0 mm/hr 0.00 in0.0 mm
09:35 AM 62.4°F16.9°C 53.7°F12.1°C 73% 2.5 mph ESE4.0 kmh ESE 3.8 mph6.1 kmh 30.17 in1021.7 mb 0.00 in0.0 mm 0.00 in/hr0.0 mm/hr 0.00 in0.0 mm
09:30 AM 61.7°F16.5°C 53.0°F11.7°C 73% 2.4 mph ESE3.9 kmh ESE 3.8 mph6.1 kmh 30.17 in1021.7 mb 0.00 in0.0 mm 0.00 in/hr0.0 mm/hr 0.00 in0.0 mm
09:25 AM 61.2°F16.2°C 53.2°F11.8°C 75% 3.4 mph SE5.5 kmh SE 6.0 mph9.7 kmh 30.17 in1021.7 mb 0.00 in0.0 mm 0.00 in/hr0.0 mm/hr 0.00 in0.0 mm
09:20 AM 60.3°F15.7°C 52.3°F11.3°C 75% 4.5 mph E7.2 kmh E 6.0 mph9.7 kmh 30.17 in1021.7 mb 0.00 in0.0 mm 0.00 in/hr0.0 mm/hr 0.00 in0.0 mm
09:15 AM 59.9°F15.5°C 52.0°F11.1°C 75% 4.3 mph ESE6.9 kmh ESE 6.9 mph11.1 kmh 30.17 in1021.7 mb 0.00 in0.0 mm 0.00 in/hr0.0 mm/hr 0.00 in0.0 mm
09:10 AM 59.2°F15.1°C 52.0°F11.1°C 77% 5.1 mph E8.2 kmh E 7.6 mph12.2 kmh 30.18 in1022.0 mb 0.00 in0.0 mm 0.00 in/hr0.0 mm/hr 0.00 in0.0 mm
09:05 AM 58.6°F14.8°C 51.5°F10.8°C 77% 5.4 mph E8.7 kmh E 7.6 mph12.2 kmh 30.18 in1022.0 mb 0.00 in0.0 mm 0.00 in/hr0.0 mm/hr 0.00 in0.0 mm
09:00 AM 58.1°F14.5°C 51.6°F10.9°C 79% 5.0 mph ESE8.0 kmh ESE 6.0 mph9.7 kmh 30.18 in1022.0 mb 0.00 in0.0 mm 0.00 in/hr0.0 mm/hr 0.00 in0.0 mm
08:55 AM 57.6°F14.2°C 51.4°F10.8°C 80% 3.8 mph E6.1 kmh E 6.0 mph9.7 kmh 30.18 in1022.0 mb 0.00 in0.0 mm 0.00 in/hr0.0 mm/hr 0.00 in0.0 mm
08:50 AM 56.7°F13.7°C 51.2°F10.7°C 82% 2.2 mph E3.5 kmh E 3.8 mph6.1 kmh 30.18 in1022.0 mb 0.00 in0.0 mm 0.00 in/hr0.0 mm/hr 0.00 in0.0 mm
08:45 AM 56.3°F13.5°C 51.2°F10.7°C 83% 2.1 mph E3.4 kmh E 3.8 mph6.1 kmh 30.17 in1021.7 mb 0.00 in0.0 mm 0.00 in/hr0.0 mm/hr 0.00 in0.0 mm
08:35 AM 54.1°F12.3°C 49.7°F9.8°C 85% 2.8 mph ESE4.5 kmh ESE 4.5 mph7.2 kmh 30.18 in1022.0 mb 0.00 in0.0 mm 0.00 in/hr0.0 mm/hr 0.00 in0.0 mm
08:30 AM 53.2°F11.8°C 49.2°F9.6°C 86% 3.4 mph E5.5 kmh E 4.5 mph7.2 kmh 30.17 in1021.7 mb 0.00 in0.0 mm 0.00 in/hr0.0 mm/hr 0.00 in0.0 mm
08:25 AM 52.3°F11.3°C 48.6°F9.2°C 87% 2.8 mph E4.5 kmh E 4.5 mph7.2 kmh 30.17 in1021.7 mb 0.00 in0.0 mm 0.00 in/hr0.0 mm/hr 0.00 in0.0 mm
08:20 AM 51.6°F10.9°C 47.9°F8.8°C 87% 1.8 mph E2.9 kmh E 3.1 mph5.0 kmh 30.17 in1021.7 mb 0.00 in0.0 mm 0.00 in/hr0.0 mm/hr 0.00 in0.0 mm
08:15 AM 51.1°F10.6°C 47.7°F8.7°C 88% 1.4 mph SE2.3 kmh SE 2.2 mph3.5 kmh 30.17 in1021.7 mb 0.00 in0.0 mm 0.00 in/hr0.0 mm/hr 0.00 in0.0 mm
08:10 AM 50.5°F10.3°C 47.1°F8.4°C 88% 1.1 mph SE1.8 kmh SE 2.2 mph3.5 kmh 30.18 in1022.0 mb 0.00 in0.0 mm 0.00 in/hr0.0 mm/hr 0.00 in0.0 mm
08:05 AM 50.2°F10.1°C 46.8°F8.2°C 88% 1.2 mph ESE1.9 kmh ESE 1.6 mph2.6 kmh 30.17 in1021.7 mb 0.00 in0.0 mm 0.00 in/hr0.0 mm/hr 0.00 in0.0 mm
08:00 AM 49.6°F9.8°C 46.2°F7.9°C 88% 1.8 mph SE2.9 kmh SE 2.2 mph3.5 kmh 30.17 in1021.7 mb 0.00 in0.0 mm 0.00 in/hr0.0 mm/hr 0.00 in0.0 mm
07:55 AM 49.1°F9.5°C 46.0°F7.8°C 89% 1.9 mph SE3.1 kmh SE 2.2 mph3.5 kmh 30.17 in1021.7 mb 0.00 in0.0 mm 0.00 in/hr0.0 mm/hr 0.00 in0.0 mm
07:50 AM 48.7°F9.3°C 45.6°F7.6°C 89% 1.8 mph ESE2.9 kmh ESE 2.2 mph3.5 kmh 30.17 in1021.7 mb 0.00 in0.0 mm 0.00 in/hr0.0 mm/hr 0.00 in0.0 mm
07:45 AM 48.2°F9.0°C 45.1°F7.3°C 89% 1.8 mph E2.9 kmh E 2.2 mph3.5 kmh 30.16 in1021.3 mb 0.00 in0.0 mm 0.00 in/hr0.0 mm/hr 0.00 in0.0 mm
07:40 AM 47.8°F8.8°C 44.8°F7.1°C 89% 1.8 mph ESE2.9 kmh ESE 2.2 mph3.5 kmh 30.17 in1021.7 mb 0.00 in0.0 mm 0.00 in/hr0.0 mm/hr 0.00 in0.0 mm
07:35 AM 47.3°F8.5°C 44.2°F6.8°C 89% 1.3 mph S2.1 kmh S 2.2 mph3.5 kmh 30.16 in1021.3 mb 0.00 in0.0 mm 0.00 in/hr0.0 mm/hr 0.00 in0.0 mm
07:30 AM 47.3°F8.5°C 44.2°F6.8°C 89% 1.4 mph S2.3 kmh S 2.2 mph3.5 kmh 30.16 in1021.3 mb 0.00 in0.0 mm 0.00 in/hr0.0 mm/hr 0.00 in0.0 mm
07:25 AM 47.1°F8.4°C 44.0°F6.7°C 89% 1.3 mph SSE2.1 kmh SSE 2.2 mph3.5 kmh 30.16 in1021.3 mb 0.00 in0.0 mm 0.00 in/hr0.0 mm/hr 0.00 in0.0 mm
07:20 AM 46.9°F8.3°C 43.9°F6.6°C 89% 0.7 mph S1.1 kmh S 1.6 mph2.6 kmh 30.16 in1021.3 mb 0.00 in0.0 mm 0.00 in/hr0.0 mm/hr 0.00 in0.0 mm
07:15 AM 46.9°F8.3°C 43.6°F6.4°C 88% 1.1 mph S1.8 kmh S 2.2 mph3.5 kmh 30.16 in1021.3 mb 0.00 in0.0 mm 0.00 in/hr0.0 mm/hr 0.00 in0.0 mm
07:10 AM 46.9°F8.3°C 43.6°F6.4°C 88% 1.1 mph SSE1.8 kmh SSE 2.2 mph3.5 kmh 30.16 in1021.3 mb 0.00 in0.0 mm 0.00 in/hr0.0 mm/hr 0.00 in0.0 mm
07:05 AM 46.8°F8.2°C 43.4°F6.3°C 88% 0.7 mph SSW1.1 kmh SSW 1.6 mph2.6 kmh 30.15 in1021.0 mb 0.00 in0.0 mm 0.00 in/hr0.0 mm/hr 0.00 in0.0 mm
07:00 AM 46.6°F8.1°C 43.2°F6.2°C 88% 1.0 mph S1.6 kmh S 1.6 mph2.6 kmh 30.16 in1021.3 mb 0.00 in0.0 mm 0.00 in/hr0.0 mm/hr 0.00 in0.0 mm
06:55 AM 46.4°F8.0°C 43.0°F6.1°C 88% 1.0 mph S1.6 kmh S 1.6 mph2.6 kmh 30.16 in1021.3 mb 0.00 in0.0 mm 0.00 in/hr0.0 mm/hr 0.00 in0.0 mm
06:50 AM 46.2°F7.9°C 42.9°F6.1°C 88% 0.8 mph S1.3 kmh S 1.6 mph2.6 kmh 30.15 in1021.0 mb 0.00 in0.0 mm 0.00 in/hr0.0 mm/hr 0.00 in0.0 mm
06:45 AM 46.4°F8.0°C 43.0°F6.1°C 88% 1.2 mph S1.9 kmh S 1.6 mph2.6 kmh 30.15 in1021.0 mb 0.00 in0.0 mm 0.00 in/hr0.0 mm/hr 0.00 in0.0 mm
06:40 AM 46.4°F8.0°C 42.7°F5.9°C 87% 1.1 mph S1.8 kmh S 1.6 mph2.6 kmh 30.14 in1020.7 mb 0.00 in0.0 mm 0.00 in/hr0.0 mm/hr 0.00 in0.0 mm
06:35 AM 46.8°F8.2°C 43.4°F6.3°C 88% 0.7 mph S1.1 kmh S 1.6 mph2.6 kmh 30.14 in1020.7 mb 0.00 in0.0 mm 0.00 in/hr0.0 mm/hr 0.00 in0.0 mm
06:30 AM 46.8°F8.2°C 43.1°F6.2°C 87% 0.7 mph S1.1 kmh S 0.7 mph1.1 kmh 30.14 in1020.7 mb 0.00 in0.0 mm 0.00 in/hr0.0 mm/hr 0.00 in0.0 mm
06:25 AM 46.9°F8.3°C 43.3°F6.3°C 87% 0.8 mph S1.3 kmh S 1.6 mph2.6 kmh 30.14 in1020.7 mb 0.00 in0.0 mm 0.00 in/hr0.0 mm/hr 0.00 in0.0 mm
06:20 AM 46.9°F8.3°C 43.3°F6.3°C 87% 0.8 mph S1.3 kmh S 1.6 mph2.6 kmh 30.14 in1020.7 mb 0.00 in0.0 mm 0.00 in/hr0.0 mm/hr 0.00 in0.0 mm
06:15 AM 46.9°F8.3°C 43.6°F6.4°C 88% 0.3 mph S0.5 kmh S 1.6 mph2.6 kmh 30.14 in1020.7 mb 0.00 in0.0 mm 0.00 in/hr0.0 mm/hr 0.00 in0.0 mm
06:10 AM 46.9°F8.3°C 43.3°F6.3°C 87% 0.3 mph SSE0.5 kmh SSE 1.6 mph2.6 kmh 30.13 in1020.3 mb 0.00 in0.0 mm 0.00 in/hr0.0 mm/hr 0.00 in0.0 mm
06:05 AM 47.1°F8.4°C 43.8°F6.6°C 88% 0.8 mph SSW1.3 kmh SSW 1.6 mph2.6 kmh 30.14 in1020.7 mb 0.00 in0.0 mm 0.00 in/hr0.0 mm/hr 0.00 in0.0 mm
06:00 AM 47.1°F8.4°C 43.8°F6.6°C 88% 0.9 mph SW1.4 kmh SW 1.6 mph2.6 kmh 30.14 in1020.7 mb 0.00 in0.0 mm 0.00 in/hr0.0 mm/hr 0.00 in0.0 mm
05:55 AM 47.1°F8.4°C 43.5°F6.4°C 87% 0.4 mph SW0.6 kmh SW 1.6 mph2.6 kmh 30.14 in1020.7 mb 0.00 in0.0 mm 0.00 in/hr0.0 mm/hr 0.00 in0.0 mm
05:50 AM 46.9°F8.3°C 43.6°F6.4°C 88% 0.1 mph S0.2 kmh S 0.7 mph1.1 kmh 30.14 in1020.7 mb 0.00 in0.0 mm 0.00 in/hr0.0 mm/hr 0.00 in0.0 mm
05:45 AM 47.1°F8.4°C 43.8°F6.6°C 88% 0.2 mph S0.3 kmh S 0.7 mph1.1 kmh 30.13 in1020.3 mb 0.00 in0.0 mm 0.00 in/hr0.0 mm/hr 0.00 in0.0 mm
05:40 AM 47.1°F8.4°C 43.5°F6.4°C 87% 0.3 mph S0.5 kmh S 0.7 mph1.1 kmh 30.13 in1020.3 mb 0.00 in0.0 mm 0.00 in/hr0.0 mm/hr 0.00 in0.0 mm
05:35 AM 47.1°F8.4°C 43.5°F6.4°C 87% Calm Calm 0.7 mph1.1 kmh 30.13 in1020.3 mb 0.00 in0.0 mm 0.00 in/hr0.0 mm/hr 0.00 in0.0 mm
05:30 AM 47.1°F8.4°C 43.5°F6.4°C 87% Calm Calm -- 30.13 in1020.3 mb 0.00 in0.0 mm 0.00 in/hr0.0 mm/hr 0.00 in0.0 mm
05:25 AM 47.3°F8.5°C 43.6°F6.4°C 87% Calm Calm -- 30.13 in1020.3 mb 0.00 in0.0 mm 0.00 in/hr0.0 mm/hr 0.00 in0.0 mm
05:20 AM 47.3°F8.5°C 43.6°F6.4°C 87% 0.2 mph S0.3 kmh S 0.7 mph1.1 kmh 30.12 in1020.0 mb 0.00 in0.0 mm 0.00 in/hr0.0 mm/hr 0.00 in0.0 mm
05:15 AM 47.7°F8.7°C 44.0°F6.7°C 87% 0.4 mph S0.6 kmh S 0.7 mph1.1 kmh 30.12 in1020.0 mb 0.00 in0.0 mm 0.00 in/hr0.0 mm/hr 0.00 in0.0 mm
05:10 AM 47.7°F8.7°C 44.0°F6.7°C 87% 0.2 mph S0.3 kmh S 0.7 mph1.1 kmh 30.12 in1020.0 mb 0.00 in0.0 mm 0.00 in/hr0.0 mm/hr 0.00 in0.0 mm
05:05 AM 47.5°F8.6°C 44.1°F6.7°C 88% 0.2 mph W0.3 kmh W 1.6 mph2.6 kmh 30.12 in1020.0 mb 0.00 in0.0 mm 0.00 in/hr0.0 mm/hr 0.00 in0.0 mm
05:00 AM 47.5°F8.6°C 44.1°F6.7°C 88% 0.7 mph SSW1.1 kmh SSW 1.6 mph2.6 kmh 30.11 in1019.6 mb 0.00 in0.0 mm 0.00 in/hr0.0 mm/hr 0.00 in0.0 mm
04:55 AM 47.5°F8.6°C 44.1°F6.7°C 88% 1.3 mph S2.1 kmh S 1.6 mph2.6 kmh 30.11 in1019.6 mb 0.00 in0.0 mm 0.00 in/hr0.0 mm/hr 0.00 in0.0 mm
04:50 AM 47.5°F8.6°C 44.1°F6.7°C 88% 1.6 mph S2.6 kmh S 2.2 mph3.5 kmh 30.12 in1020.0 mb 0.00 in0.0 mm 0.00 in/hr0.0 mm/hr 0.00 in0.0 mm
04:45 AM 47.5°F8.6°C 44.1°F6.7°C 88% 1.5 mph S2.4 kmh S 2.2 mph3.5 kmh 30.12 in1020.0 mb 0.00 in0.0 mm 0.00 in/hr0.0 mm/hr 0.00 in0.0 mm
04:40 AM 47.7°F8.7°C 44.3°F6.8°C 88% 1.3 mph S2.1 kmh S 1.6 mph2.6 kmh 30.11 in1019.6 mb 0.00 in0.0 mm 0.00 in/hr0.0 mm/hr 0.00 in0.0 mm
04:35 AM 47.7°F8.7°C 44.3°F6.8°C 88% 1.4 mph S2.3 kmh S 1.6 mph2.6 kmh 30.11 in1019.6 mb 0.00 in0.0 mm 0.00 in/hr0.0 mm/hr 0.00 in0.0 mm
04:30 AM 47.7°F8.7°C 44.3°F6.8°C 88% 1.7 mph SSE2.7 kmh SSE 3.1 mph5.0 kmh 30.11 in1019.6 mb 0.00 in0.0 mm 0.00 in/hr0.0 mm/hr 0.00 in0.0 mm
04:25 AM 47.5°F8.6°C 44.1°F6.7°C 88% 2.2 mph SSE3.5 kmh SSE 3.1 mph5.0 kmh 30.11 in1019.6 mb 0.00 in0.0 mm 0.00 in/hr0.0 mm/hr 0.00 in0.0 mm
04:20 AM 47.3°F8.5°C 43.6°F6.4°C 87% 1.8 mph SSE2.9 kmh SSE 3.1 mph5.0 kmh 30.11 in1019.6 mb 0.00 in0.0 mm 0.00 in/hr0.0 mm/hr 0.00 in0.0 mm
04:15 AM 47.5°F8.6°C 43.8°F6.6°C 87% 0.9 mph S1.4 kmh S 2.2 mph3.5 kmh 30.11 in1019.6 mb 0.00 in0.0 mm 0.00 in/hr0.0 mm/hr 0.00 in0.0 mm
04:10 AM 47.7°F8.7°C 43.7°F6.5°C 86% 0.9 mph S1.4 kmh S 1.6 mph2.6 kmh 30.11 in1019.6 mb 0.00 in0.0 mm 0.00 in/hr0.0 mm/hr 0.00 in0.0 mm
04:05 AM 48.0°F8.9°C 44.0°F6.7°C 86% 0.6 mph S1.0 kmh S 1.6 mph2.6 kmh 30.10 in1019.3 mb 0.00 in0.0 mm 0.00 in/hr0.0 mm/hr 0.00 in0.0 mm
04:00 AM 48.2°F9.0°C 44.2°F6.8°C 86% 0.2 mph SSW0.3 kmh SSW 0.7 mph1.1 kmh 30.11 in1019.6 mb 0.00 in0.0 mm 0.00 in/hr0.0 mm/hr 0.00 in0.0 mm
03:55 AM 48.0°F8.9°C 44.0°F6.7°C 86% 0.4 mph S0.6 kmh S 1.6 mph2.6 kmh 30.10 in1019.3 mb 0.00 in0.0 mm 0.00 in/hr0.0 mm/hr 0.00 in0.0 mm
03:50 AM 48.2°F9.0°C 44.2°F6.8°C 86% 1.2 mph S1.9 kmh S 1.6 mph2.6 kmh 30.10 in1019.3 mb 0.00 in0.0 mm 0.00 in/hr0.0 mm/hr 0.00 in0.0 mm
03:45 AM 48.7°F9.3°C 44.7°F7.1°C 86% 1.5 mph SSE2.4 kmh SSE 1.6 mph2.6 kmh 30.10 in1019.3 mb 0.00 in0.0 mm 0.00 in/hr0.0 mm/hr 0.00 in0.0 mm
03:40 AM 48.7°F9.3°C 44.7°F7.1°C 86% 1.1 mph SE1.8 kmh SE 1.6 mph2.6 kmh 30.10 in1019.3 mb 0.00 in0.0 mm 0.00 in/hr0.0 mm/hr 0.00 in0.0 mm
03:35 AM 48.6°F9.2°C 44.6°F7.0°C 86% 0.6 mph S1.0 kmh S 1.6 mph2.6 kmh 30.10 in1019.3 mb 0.00 in0.0 mm 0.00 in/hr0.0 mm/hr 0.00 in0.0 mm
03:30 AM 48.7°F9.3°C 44.7°F7.1°C 86% 1.0 mph S1.6 kmh S 1.6 mph2.6 kmh 30.10 in1019.3 mb 0.00 in0.0 mm 0.00 in/hr0.0 mm/hr 0.00 in0.0 mm
03:25 AM 48.6°F9.2°C 44.6°F7.0°C 86% 1.8 mph SSW2.9 kmh SSW 2.2 mph3.5 kmh 30.10 in1019.3 mb 0.00 in0.0 mm 0.00 in/hr0.0 mm/hr 0.00 in0.0 mm
03:20 AM 48.6°F9.2°C 44.6°F7.0°C 86% 2.2 mph S3.5 kmh S 2.2 mph3.5 kmh 30.10 in1019.3 mb 0.00 in0.0 mm 0.00 in/hr0.0 mm/hr 0.00 in0.0 mm
03:15 AM 48.7°F9.3°C 44.4°F6.9°C 85% 1.8 mph S2.9 kmh S 2.2 mph3.5 kmh 30.09 in1019.0 mb 0.00 in0.0 mm 0.00 in/hr0.0 mm/hr 0.00 in0.0 mm
03:10 AM 49.1°F9.5°C 44.8°F7.1°C 85% 1.6 mph S2.6 kmh S 2.2 mph3.5 kmh 30.10 in1019.3 mb 0.00 in0.0 mm 0.00 in/hr0.0 mm/hr 0.00 in0.0 mm
03:05 AM 49.3°F9.6°C 45.0°F7.2°C 85% 2.0 mph S3.2 kmh S 3.1 mph5.0 kmh 30.10 in1019.3 mb 0.00 in0.0 mm 0.00 in/hr0.0 mm/hr 0.00 in0.0 mm
03:00 AM 49.5°F9.7°C 45.1°F7.3°C 85% 2.0 mph SE3.2 kmh SE 3.1 mph5.0 kmh 30.09 in1019.0 mb 0.00 in0.0 mm 0.00 in/hr0.0 mm/hr 0.00 in0.0 mm
02:55 AM 49.5°F9.7°C 45.1°F7.3°C 85% 1.1 mph SE1.8 kmh SE 2.2 mph3.5 kmh 30.10 in1019.3 mb 0.00 in0.0 mm 0.00 in/hr0.0 mm/hr 0.00 in0.0 mm
02:50 AM 49.5°F9.7°C 45.1°F7.3°C 85% 0.3 mph SSE0.5 kmh SSE 1.6 mph2.6 kmh 30.09 in1019.0 mb 0.00 in0.0 mm 0.00 in/hr0.0 mm/hr 0.00 in0.0 mm
02:45 AM 49.5°F9.7°C 45.1°F7.3°C 85% 0.1 mph SSW0.2 kmh SSW 0.7 mph1.1 kmh 30.09 in1019.0 mb 0.00 in0.0 mm 0.00 in/hr0.0 mm/hr 0.00 in0.0 mm
02:40 AM 49.3°F9.6°C 45.3°F7.4°C 86% Calm Calm -- 30.10 in1019.3 mb 0.00 in0.0 mm 0.00 in/hr0.0 mm/hr 0.00 in0.0 mm
02:35 AM 49.3°F9.6°C 45.0°F7.2°C 85% Calm Calm 0.7 mph1.1 kmh 30.10 in1019.3 mb 0.00 in0.0 mm 0.00 in/hr0.0 mm/hr 0.00 in0.0 mm
02:30 AM 49.1°F9.5°C 44.8°F7.1°C 85% 0.6 mph S1.0 kmh S 1.6 mph2.6 kmh 30.09 in1019.0 mb 0.00 in0.0 mm 0.00 in/hr0.0 mm/hr 0.00 in0.0 mm
02:25 AM 49.5°F9.7°C 45.1°F7.3°C 85% 1.3 mph S2.1 kmh S 1.6 mph2.6 kmh 30.10 in1019.3 mb 0.00 in0.0 mm 0.00 in/hr0.0 mm/hr 0.00 in0.0 mm
02:20 AM 49.8°F9.9°C 45.5°F7.5°C 85% 1.6 mph SE2.6 kmh SE 2.2 mph3.5 kmh 30.10 in1019.3 mb 0.00 in0.0 mm 0.00 in/hr0.0 mm/hr 0.00 in0.0 mm
02:15 AM 49.8°F9.9°C 45.2°F7.3°C 84% 1.6 mph SE2.6 kmh SE 2.2 mph3.5 kmh 30.10 in1019.3 mb 0.00 in0.0 mm 0.00 in/hr0.0 mm/hr 0.00 in0.0 mm
02:10 AM 50.0°F10.0°C 45.4°F7.4°C 84% 0.8 mph SE1.3 kmh SE 1.6 mph2.6 kmh 30.10 in1019.3 mb 0.00 in0.0 mm 0.00 in/hr0.0 mm/hr 0.00 in0.0 mm
02:05 AM 50.2°F10.1°C 45.5°F7.5°C 84% 0.2 mph E0.3 kmh E 1.6 mph2.6 kmh 30.10 in1019.3 mb 0.00 in0.0 mm 0.00 in/hr0.0 mm/hr 0.00 in0.0 mm
02:00 AM 50.2°F10.1°C 45.5°F7.5°C 84% 0.3 mph S0.5 kmh S 1.6 mph2.6 kmh 30.11 in1019.6 mb 0.00 in0.0 mm 0.00 in/hr0.0 mm/hr 0.00 in0.0 mm
01:55 AM 50.2°F10.1°C 45.5°F7.5°C 84% 0.6 mph SSW1.0 kmh SSW 1.6 mph2.6 kmh 30.10 in1019.3 mb 0.00 in0.0 mm 0.00 in/hr0.0 mm/hr 0.00 in0.0 mm
01:50 AM 50.4°F10.2°C 45.7°F7.6°C 84% 1.0 mph SW1.6 kmh SW 1.6 mph2.6 kmh 30.11 in1019.6 mb 0.00 in0.0 mm 0.00 in/hr0.0 mm/hr 0.00 in0.0 mm
01:45 AM 50.2°F10.1°C 45.5°F7.5°C 84% 1.0 mph SW1.6 kmh SW 1.6 mph2.6 kmh 30.11 in1019.6 mb 0.00 in0.0 mm 0.00 in/hr0.0 mm/hr 0.00 in0.0 mm
01:40 AM 50.7°F10.4°C 45.8°F7.7°C 83% 1.1 mph SE1.8 kmh SE 1.6 mph2.6 kmh 30.11 in1019.6 mb 0.00 in0.0 mm 0.00 in/hr0.0 mm/hr 0.00 in0.0 mm
01:35 AM 50.9°F10.5°C 45.9°F7.7°C 83% 1.4 mph E2.3 kmh E 2.2 mph3.5 kmh 30.11 in1019.6 mb 0.00 in0.0 mm 0.00 in/hr0.0 mm/hr 0.00 in0.0 mm
01:30 AM 50.7°F10.4°C 45.8°F7.7°C 83% 1.1 mph SE1.8 kmh SE 2.2 mph3.5 kmh 30.11 in1019.6 mb 0.00 in0.0 mm 0.00 in/hr0.0 mm/hr 0.00 in0.0 mm
01:25 AM 51.1°F10.6°C 46.1°F7.8°C 83% 0.8 mph S1.3 kmh S 1.6 mph2.6 kmh 30.11 in1019.6 mb 0.00 in0.0 mm 0.00 in/hr0.0 mm/hr 0.00 in0.0 mm
01:20 AM 51.3°F10.7°C 46.3°F7.9°C 83% 0.7 mph S1.1 kmh S 1.6 mph2.6 kmh 30.11 in1019.6 mb 0.00 in0.0 mm 0.00 in/hr0.0 mm/hr 0.00 in0.0 mm
01:15 AM 51.1°F10.6°C 46.1°F7.8°C 83% 0.8 mph S1.3 kmh S 1.6 mph2.6 kmh 30.12 in1020.0 mb 0.00 in0.0 mm 0.00 in/hr0.0 mm/hr 0.00 in0.0 mm
01:10 AM 51.3°F10.7°C 46.3°F7.9°C 83% 0.7 mph S1.1 kmh S 1.6 mph2.6 kmh 30.12 in1020.0 mb 0.00 in0.0 mm 0.00 in/hr0.0 mm/hr 0.00 in0.0 mm
01:05 AM 50.9°F10.5°C 45.9°F7.7°C 83% 1.0 mph S1.6 kmh S 2.2 mph3.5 kmh 30.12 in1020.0 mb 0.00 in0.0 mm 0.00 in/hr0.0 mm/hr 0.00 in0.0 mm
01:00 AM 51.1°F10.6°C 46.1°F7.8°C 83% 1.5 mph S2.4 kmh S 2.2 mph3.5 kmh 30.11 in1019.6 mb 0.00 in0.0 mm 0.00 in/hr0.0 mm/hr 0.00 in0.0 mm
12:55 AM 51.4°F10.8°C 46.1°F7.8°C 82% 1.3 mph S2.1 kmh S 2.2 mph3.5 kmh 30.11 in1019.6 mb 0.00 in0.0 mm 0.00 in/hr0.0 mm/hr 0.00 in0.0 mm
12:50 AM 51.4°F10.8°C 46.1°F7.8°C 82% 1.1 mph S1.8 kmh S 1.6 mph2.6 kmh 30.11 in1019.6 mb 0.00 in0.0 mm 0.00 in/hr0.0 mm/hr 0.00 in0.0 mm
12:45 AM 51.8°F11.0°C 46.2°F7.9°C 81% 0.6 mph S1.0 kmh S 1.6 mph2.6 kmh 30.12 in1020.0 mb 0.00 in0.0 mm 0.00 in/hr0.0 mm/hr 0.00 in0.0 mm
12:40 AM 52.2°F11.2°C 46.5°F8.1°C 81% Calm Calm 0.7 mph1.1 kmh 30.12 in1020.0 mb 0.00 in0.0 mm 0.00 in/hr0.0 mm/hr 0.00 in0.0 mm
12:35 AM 52.2°F11.2°C 46.5°F8.1°C 81% 0.1 mph S0.2 kmh S 0.7 mph1.1 kmh 30.12 in1020.0 mb 0.00 in0.0 mm 0.00 in/hr0.0 mm/hr 0.00 in0.0 mm
12:30 AM 52.3°F11.3°C 46.7°F8.2°C 81% 0.1 mph S0.2 kmh S 0.7 mph1.1 kmh 30.12 in1020.0 mb 0.00 in0.0 mm 0.00 in/hr0.0 mm/hr 0.00 in0.0 mm
12:25 AM 52.3°F11.3°C 46.7°F8.2°C 81% 0.2 mph S0.3 kmh S 0.7 mph1.1 kmh 30.12 in1020.0 mb 0.00 in0.0 mm 0.00 in/hr0.0 mm/hr 0.00 in0.0 mm
12:20 AM 52.3°F11.3°C 46.7°F8.2°C 81% 0.2 mph S0.3 kmh S 0.7 mph1.1 kmh 30.12 in1020.0 mb 0.00 in0.0 mm 0.00 in/hr0.0 mm/hr 0.00 in0.0 mm
12:15 AM 52.7°F11.5°C 47.0°F8.3°C 81% Calm Calm -- 30.12 in1020.0 mb 0.00 in0.0 mm 0.00 in/hr0.0 mm/hr 0.00 in0.0 mm
12:10 AM 52.7°F11.5°C 46.7°F8.2°C 80% Calm Calm -- 30.13 in1020.3 mb 0.00 in0.0 mm 0.00 in/hr0.0 mm/hr 0.00 in0.0 mm
12:05 AM 52.7°F11.5°C 46.7°F8.2°C 80% 0.1 mph S0.2 kmh S 0.7 mph1.1 kmh 30.13 in1020.3 mb 0.00 in0.0 mm 0.00 in/hr0.0 mm/hr 0.00 in0.0 mm
12:00 AM 52.7°F11.5°C 46.7°F8.2°C 80% 0.2 mph S0.3 kmh S 0.7 mph1.1 kmh 30.12 in1020.0 mb 0.00 in0.0 mm 0.00 in/hr0.0 mm/hr 0.00 in0.0 mm